sensor_id;sensor_type;location;lat;lon;timestamp;temperature;humidity
11818;DHT22;5966;52.402;5.322;2022-07-18T00:00:54;18.50;99.90
11818;DHT22;5966;52.402;5.322;2022-07-18T00:03:21;18.50;99.90
11818;DHT22;5966;52.402;5.322;2022-07-18T00:05:49;18.50;99.90
11818;DHT22;5966;52.402;5.322;2022-07-18T00:08:18;18.40;99.90
11818;DHT22;5966;52.402;5.322;2022-07-18T00:10:47;18.40;99.90
11818;DHT22;5966;52.402;5.322;2022-07-18T00:13:15;18.40;99.90
11818;DHT22;5966;52.402;5.322;2022-07-18T00:15:43;18.40;99.90
11818;DHT22;5966;52.402;5.322;2022-07-18T00:18:11;18.40;99.90
11818;DHT22;5966;52.402;5.322;2022-07-18T00:20:39;18.40;99.90
11818;DHT22;5966;52.402;5.322;2022-07-18T00:23:07;18.40;99.90
11818;DHT22;5966;52.402;5.322;2022-07-18T00:25:35;18.30;99.90
11818;DHT22;5966;52.402;5.322;2022-07-18T00:28:04;18.30;99.90
11818;DHT22;5966;52.402;5.322;2022-07-18T00:30:32;18.30;99.90
11818;DHT22;5966;52.402;5.322;2022-07-18T00:33:00;18.30;99.90
11818;DHT22;5966;52.402;5.322;2022-07-18T00:35:28;18.20;99.90
11818;DHT22;5966;52.402;5.322;2022-07-18T00:37:56;18.20;99.90
11818;DHT22;5966;52.402;5.322;2022-07-18T00:40:24;18.10;99.90
11818;DHT22;5966;52.402;5.322;2022-07-18T00:42:52;18.00;99.90
11818;DHT22;5966;52.402;5.322;2022-07-18T00:45:21;18.00;99.90
11818;DHT22;5966;52.402;5.322;2022-07-18T00:47:49;18.10;99.90
11818;DHT22;5966;52.402;5.322;2022-07-18T00:50:18;18.00;99.90
11818;DHT22;5966;52.402;5.322;2022-07-18T00:52:46;18.00;99.90
11818;DHT22;5966;52.402;5.322;2022-07-18T00:55:15;18.00;99.90
11818;DHT22;5966;52.402;5.322;2022-07-18T00:57:43;18.00;99.90
11818;DHT22;5966;52.402;5.322;2022-07-18T01:00:12;18.00;99.90
11818;DHT22;5966;52.402;5.322;2022-07-18T01:02:59;18.00;99.90
11818;DHT22;5966;52.402;5.322;2022-07-18T01:05:28;18.00;99.90
11818;DHT22;5966;52.402;5.322;2022-07-18T01:07:56;17.90;99.90
11818;DHT22;5966;52.402;5.322;2022-07-18T01:10:24;17.90;99.90
11818;DHT22;5966;52.402;5.322;2022-07-18T01:12:52;18.00;99.90
11818;DHT22;5966;52.402;5.322;2022-07-18T01:15:20;18.00;99.90
11818;DHT22;5966;52.402;5.322;2022-07-18T01:17:48;18.00;99.90
11818;DHT22;5966;52.402;5.322;2022-07-18T01:20:17;18.00;99.90
11818;DHT22;5966;52.402;5.322;2022-07-18T01:22:47;18.00;99.90
11818;DHT22;5966;52.402;5.322;2022-07-18T01:25:15;17.90;99.90
11818;DHT22;5966;52.402;5.322;2022-07-18T01:27:43;17.80;99.90
11818;DHT22;5966;52.402;5.322;2022-07-18T01:30:12;17.70;99.90
11818;DHT22;5966;52.402;5.322;2022-07-18T01:32:40;17.70;99.90
11818;DHT22;5966;52.402;5.322;2022-07-18T01:35:08;17.70;99.90
11818;DHT22;5966;52.402;5.322;2022-07-18T01:37:37;17.60;99.90
11818;DHT22;5966;52.402;5.322;2022-07-18T01:40:09;17.70;99.90
11818;DHT22;5966;52.402;5.322;2022-07-18T01:42:37;17.70;99.90
11818;DHT22;5966;52.402;5.322;2022-07-18T01:45:06;17.70;99.90
11818;DHT22;5966;52.402;5.322;2022-07-18T01:47:34;17.70;99.90
11818;DHT22;5966;52.402;5.322;2022-07-18T01:50:03;17.60;99.90
11818;DHT22;5966;52.402;5.322;2022-07-18T01:52:31;17.60;99.90
11818;DHT22;5966;52.402;5.322;2022-07-18T01:54:59;17.60;99.90
11818;DHT22;5966;52.402;5.322;2022-07-18T01:57:28;17.60;99.90
11818;DHT22;5966;52.402;5.322;2022-07-18T01:59:56;17.60;99.90
11818;DHT22;5966;52.402;5.322;2022-07-18T02:02:24;17.60;99.90
11818;DHT22;5966;52.402;5.322;2022-07-18T02:04:52;17.50;99.90
11818;DHT22;5966;52.402;5.322;2022-07-18T02:07:32;17.50;99.90
11818;DHT22;5966;52.402;5.322;2022-07-18T02:10:03;17.40;99.90
11818;DHT22;5966;52.402;5.322;2022-07-18T02:12:32;17.40;99.90
11818;DHT22;5966;52.402;5.322;2022-07-18T02:15:00;17.40;99.90
11818;DHT22;5966;52.402;5.322;2022-07-18T02:17:29;17.30;99.90
11818;DHT22;5966;52.402;5.322;2022-07-18T02:19:57;17.30;99.90
11818;DHT22;5966;52.402;5.322;2022-07-18T02:22:26;17.30;99.90
11818;DHT22;5966;52.402;5.322;2022-07-18T02:24:54;17.30;99.90
11818;DHT22;5966;52.402;5.322;2022-07-18T02:27:22;17.30;99.90
11818;DHT22;5966;52.402;5.322;2022-07-18T02:29:51;17.30;99.90
11818;DHT22;5966;52.402;5.322;2022-07-18T02:32:19;17.30;99.90
11818;DHT22;5966;52.402;5.322;2022-07-18T02:34:50;17.20;99.90
11818;DHT22;5966;52.402;5.322;2022-07-18T02:37:18;17.20;99.90
11818;DHT22;5966;52.402;5.322;2022-07-18T02:39:46;17.20;99.90
11818;DHT22;5966;52.402;5.322;2022-07-18T02:42:14;17.20;99.90
11818;DHT22;5966;52.402;5.322;2022-07-18T02:44:42;17.10;99.90
11818;DHT22;5966;52.402;5.322;2022-07-18T02:47:11;17.10;99.90
11818;DHT22;5966;52.402;5.322;2022-07-18T02:49:39;17.00;99.90
11818;DHT22;5966;52.402;5.322;2022-07-18T02:52:08;17.10;99.90
11818;DHT22;5966;52.402;5.322;2022-07-18T02:54:38;17.00;99.90
11818;DHT22;5966;52.402;5.322;2022-07-18T02:57:06;17.00;99.90
11818;DHT22;5966;52.402;5.322;2022-07-18T02:59:34;17.00;99.90
11818;DHT22;5966;52.402;5.322;2022-07-18T03:02:02;17.00;99.90
11818;DHT22;5966;52.402;5.322;2022-07-18T03:04:32;17.10;99.90
11818;DHT22;5966;52.402;5.322;2022-07-18T03:07:00;17.10;99.90
11818;DHT22;5966;52.402;5.322;2022-07-18T03:09:28;17.00;99.90
11818;DHT22;5966;52.402;5.322;2022-07-18T03:11:57;17.00;99.90
11818;DHT22;5966;52.402;5.322;2022-07-18T03:14:24;16.90;99.90
11818;DHT22;5966;52.402;5.322;2022-07-18T03:16:52;16.90;99.90
11818;DHT22;5966;52.402;5.322;2022-07-18T03:19:21;16.90;99.90
11818;DHT22;5966;52.402;5.322;2022-07-18T03:21:50;16.90;99.90
11818;DHT22;5966;52.402;5.322;2022-07-18T03:24:18;16.90;99.90
11818;DHT22;5966;52.402;5.322;2022-07-18T03:26:46;16.90;99.90
11818;DHT22;5966;52.402;5.322;2022-07-18T03:29:14;16.90;99.90
11818;DHT22;5966;52.402;5.322;2022-07-18T03:31:42;16.90;99.90
11818;DHT22;5966;52.402;5.322;2022-07-18T03:34:10;16.90;99.90
11818;DHT22;5966;52.402;5.322;2022-07-18T03:36:38;16.90;99.90
11818;DHT22;5966;52.402;5.322;2022-07-18T03:39:08;16.80;99.90
11818;DHT22;5966;52.402;5.322;2022-07-18T03:41:36;16.80;99.90
11818;DHT22;5966;52.402;5.322;2022-07-18T03:44:05;16.80;99.90
11818;DHT22;5966;52.402;5.322;2022-07-18T03:46:33;16.80;99.90
11818;DHT22;5966;52.402;5.322;2022-07-18T03:49:02;16.80;99.90
11818;DHT22;5966;52.402;5.322;2022-07-18T03:51:30;16.80;99.90
11818;DHT22;5966;52.402;5.322;2022-07-18T03:53:58;16.80;99.90
11818;DHT22;5966;52.402;5.322;2022-07-18T03:56:27;16.90;99.90
11818;DHT22;5966;52.402;5.322;2022-07-18T03:58:56;16.90;99.90
11818;DHT22;5966;52.402;5.322;2022-07-18T04:01:24;16.90;99.90
11818;DHT22;5966;52.402;5.322;2022-07-18T04:03:52;17.00;99.90
11818;DHT22;5966;52.402;5.322;2022-07-18T04:06:20;16.90;99.90
11818;DHT22;5966;52.402;5.322;2022-07-18T04:08:48;17.00;99.90
11818;DHT22;5966;52.402;5.322;2022-07-18T04:11:17;17.00;99.90
11818;DHT22;5966;52.402;5.322;2022-07-18T04:13:49;17.00;99.90
11818;DHT22;5966;52.402;5.322;2022-07-18T04:16:18;17.00;99.90
11818;DHT22;5966;52.402;5.322;2022-07-18T04:18:46;17.00;99.90
11818;DHT22;5966;52.402;5.322;2022-07-18T04:21:14;17.00;99.90
11818;DHT22;5966;52.402;5.322;2022-07-18T04:23:43;17.00;99.90
11818;DHT22;5966;52.402;5.322;2022-07-18T04:26:11;16.90;99.90
11818;DHT22;5966;52.402;5.322;2022-07-18T04:28:39;16.90;99.90
11818;DHT22;5966;52.402;5.322;2022-07-18T04:31:08;16.90;99.90
11818;DHT22;5966;52.402;5.322;2022-07-18T04:33:37;16.90;99.90
11818;DHT22;5966;52.402;5.322;2022-07-18T04:36:05;16.90;99.90
11818;DHT22;5966;52.402;5.322;2022-07-18T04:38:33;16.90;99.90
11818;DHT22;5966;52.402;5.322;2022-07-18T04:41:04;17.00;99.90
11818;DHT22;5966;52.402;5.322;2022-07-18T04:43:32;17.00;99.90
11818;DHT22;5966;52.402;5.322;2022-07-18T04:46:00;17.00;99.90
11818;DHT22;5966;52.402;5.322;2022-07-18T04:48:29;17.10;99.90
11818;DHT22;5966;52.402;5.322;2022-07-18T04:50:57;17.10;99.90
11818;DHT22;5966;52.402;5.322;2022-07-18T04:53:25;17.10;99.90
11818;DHT22;5966;52.402;5.322;2022-07-18T04:55:53;17.20;99.90
11818;DHT22;5966;52.402;5.322;2022-07-18T04:58:21;17.20;99.90
11818;DHT22;5966;52.402;5.322;2022-07-18T05:00:49;17.20;99.90
11818;DHT22;5966;52.402;5.322;2022-07-18T05:03:18;17.20;99.90
11818;DHT22;5966;52.402;5.322;2022-07-18T05:05:47;17.20;99.90
11818;DHT22;5966;52.402;5.322;2022-07-18T05:08:15;17.20;99.90
11818;DHT22;5966;52.402;5.322;2022-07-18T05:10:43;17.20;99.90
11818;DHT22;5966;52.402;5.322;2022-07-18T05:13:11;17.20;99.90
11818;DHT22;5966;52.402;5.322;2022-07-18T05:15:39;17.20;99.90
11818;DHT22;5966;52.402;5.322;2022-07-18T05:18:07;17.20;99.90
11818;DHT22;5966;52.402;5.322;2022-07-18T05:20:35;17.20;99.90
11818;DHT22;5966;52.402;5.322;2022-07-18T05:23:13;17.30;99.90
11818;DHT22;5966;52.402;5.322;2022-07-18T05:25:42;17.30;99.90
11818;DHT22;5966;52.402;5.322;2022-07-18T05:28:10;17.30;99.90
11818;DHT22;5966;52.402;5.322;2022-07-18T05:30:38;17.30;99.90
11818;DHT22;5966;52.402;5.322;2022-07-18T05:33:06;17.20;99.90
11818;DHT22;5966;52.402;5.322;2022-07-18T05:35:34;17.30;99.90
11818;DHT22;5966;52.402;5.322;2022-07-18T05:38:02;17.30;99.90
11818;DHT22;5966;52.402;5.322;2022-07-18T05:40:32;17.40;99.90
11818;DHT22;5966;52.402;5.322;2022-07-18T05:43:00;17.50;99.90
11818;DHT22;5966;52.402;5.322;2022-07-18T05:45:28;17.60;99.90
11818;DHT22;5966;52.402;5.322;2022-07-18T05:47:56;17.70;99.90
11818;DHT22;5966;52.402;5.322;2022-07-18T05:50:24;17.80;99.90
11818;DHT22;5966;52.402;5.322;2022-07-18T05:52:53;17.90;99.90
11818;DHT22;5966;52.402;5.322;2022-07-18T05:55:20;18.10;99.90
11818;DHT22;5966;52.402;5.322;2022-07-18T05:57:50;18.20;99.90
11818;DHT22;5966;52.402;5.322;2022-07-18T06:00:20;18.30;99.90
11818;DHT22;5966;52.402;5.322;2022-07-18T06:02:49;18.40;99.90
11818;DHT22;5966;52.402;5.322;2022-07-18T06:05:17;18.60;99.90
11818;DHT22;5966;52.402;5.322;2022-07-18T06:07:50;18.70;99.90
11818;DHT22;5966;52.402;5.322;2022-07-18T06:10:18;18.80;99.90
11818;DHT22;5966;52.402;5.322;2022-07-18T06:12:47;18.80;99.90
11818;DHT22;5966;52.402;5.322;2022-07-18T06:15:18;18.90;99.90
11818;DHT22;5966;52.402;5.322;2022-07-18T06:17:46;18.90;99.90
11818;DHT22;5966;52.402;5.322;2022-07-18T06:20:14;19.00;99.90
11818;DHT22;5966;52.402;5.322;2022-07-18T06:22:42;19.10;99.90
11818;DHT22;5966;52.402;5.322;2022-07-18T06:25:11;19.20;99.90
11818;DHT22;5966;52.402;5.322;2022-07-18T06:27:39;19.30;99.90
11818;DHT22;5966;52.402;5.322;2022-07-18T06:30:08;19.40;99.90
11818;DHT22;5966;52.402;5.322;2022-07-18T06:32:38;19.50;99.90
11818;DHT22;5966;52.402;5.322;2022-07-18T06:35:08;19.50;99.90
11818;DHT22;5966;52.402;5.322;2022-07-18T06:37:36;19.50;99.90
11818;DHT22;5966;52.402;5.322;2022-07-18T06:40:05;19.50;99.90
11818;DHT22;5966;52.402;5.322;2022-07-18T06:42:34;19.50;99.90
11818;DHT22;5966;52.402;5.322;2022-07-18T06:45:03;19.60;99.90
11818;DHT22;5966;52.402;5.322;2022-07-18T06:47:40;19.70;99.90
11818;DHT22;5966;52.402;5.322;2022-07-18T06:50:10;19.90;99.90
11818;DHT22;5966;52.402;5.322;2022-07-18T06:52:38;20.10;99.90
11818;DHT22;5966;52.402;5.322;2022-07-18T06:55:07;20.20;99.90
11818;DHT22;5966;52.402;5.322;2022-07-18T06:57:37;20.30;99.90
11818;DHT22;5966;52.402;5.322;2022-07-18T07:00:07;20.40;99.90
11818;DHT22;5966;52.402;5.322;2022-07-18T07:02:41;20.60;99.90
11818;DHT22;5966;52.402;5.322;2022-07-18T07:05:09;20.70;99.90
11818;DHT22;5966;52.402;5.322;2022-07-18T07:07:37;20.90;99.90
11818;DHT22;5966;52.402;5.322;2022-07-18T07:10:13;21.10;99.90
11818;DHT22;5966;52.402;5.322;2022-07-18T07:12:43;21.20;99.90
11818;DHT22;5966;52.402;5.322;2022-07-18T07:15:11;21.30;99.90
11818;DHT22;5966;52.402;5.322;2022-07-18T07:17:41;21.40;99.90
11818;DHT22;5966;52.402;5.322;2022-07-18T07:20:10;21.40;99.90
11818;DHT22;5966;52.402;5.322;2022-07-18T07:22:43;21.50;99.90
11818;DHT22;5966;52.402;5.322;2022-07-18T07:25:11;21.60;99.90
11818;DHT22;5966;52.402;5.322;2022-07-18T07:27:39;21.70;99.90
11818;DHT22;5966;52.402;5.322;2022-07-18T07:30:09;21.70;99.90
11818;DHT22;5966;52.402;5.322;2022-07-18T07:32:39;21.70;99.90
11818;DHT22;5966;52.402;5.322;2022-07-18T07:35:13;21.70;99.90
11818;DHT22;5966;52.402;5.322;2022-07-18T07:37:43;21.70;99.90
11818;DHT22;5966;52.402;5.322;2022-07-18T07:40:11;21.70;99.90
11818;DHT22;5966;52.402;5.322;2022-07-18T07:42:40;21.80;99.90
11818;DHT22;5966;52.402;5.322;2022-07-18T07:45:09;21.90;99.90
11818;DHT22;5966;52.402;5.322;2022-07-18T07:47:37;22.00;99.90
11818;DHT22;5966;52.402;5.322;2022-07-18T07:50:07;22.10;99.90
11818;DHT22;5966;52.402;5.322;2022-07-18T07:52:37;22.30;99.90
11818;DHT22;5966;52.402;5.322;2022-07-18T07:55:06;22.50;99.90
11818;DHT22;5966;52.402;5.322;2022-07-18T07:57:34;22.60;99.90
11818;DHT22;5966;52.402;5.322;2022-07-18T08:00:05;22.70;99.90
11818;DHT22;5966;52.402;5.322;2022-07-18T08:02:35;22.80;99.90
11818;DHT22;5966;52.402;5.322;2022-07-18T08:05:04;22.90;99.90
11818;DHT22;5966;52.402;5.322;2022-07-18T08:07:32;23.10;99.90
11818;DHT22;5966;52.402;5.322;2022-07-18T08:10:01;23.30;99.90
11818;DHT22;5966;52.402;5.322;2022-07-18T08:12:30;23.50;99.90
11818;DHT22;5966;52.402;5.322;2022-07-18T08:14:58;23.50;99.90
11818;DHT22;5966;52.402;5.322;2022-07-18T08:17:26;23.50;99.90
11818;DHT22;5966;52.402;5.322;2022-07-18T08:19:54;23.50;99.90
11818;DHT22;5966;52.402;5.322;2022-07-18T08:22:22;23.50;99.90
11818;DHT22;5966;52.402;5.322;2022-07-18T08:24:50;23.70;99.90
11818;DHT22;5966;52.402;5.322;2022-07-18T08:27:19;23.80;99.90
11818;DHT22;5966;52.402;5.322;2022-07-18T08:29:47;23.80;99.90
11818;DHT22;5966;52.402;5.322;2022-07-18T08:32:33;23.80;99.90
11818;DHT22;5966;52.402;5.322;2022-07-18T08:35:01;23.90;99.90
11818;DHT22;5966;52.402;5.322;2022-07-18T08:37:30;23.90;99.90
11818;DHT22;5966;52.402;5.322;2022-07-18T08:39:58;24.00;99.90
11818;DHT22;5966;52.402;5.322;2022-07-18T08:42:27;24.00;99.90
11818;DHT22;5966;52.402;5.322;2022-07-18T08:44:56;24.00;99.90
11818;DHT22;5966;52.402;5.322;2022-07-18T08:47:26;24.00;99.90
11818;DHT22;5966;52.402;5.322;2022-07-18T08:49:56;24.00;99.90
11818;DHT22;5966;52.402;5.322;2022-07-18T08:52:25;24.10;99.90
11818;DHT22;5966;52.402;5.322;2022-07-18T08:55:13;24.10;99.90
11818;DHT22;5966;52.402;5.322;2022-07-18T08:57:52;24.20;99.90
11818;DHT22;5966;52.402;5.322;2022-07-18T09:00:21;24.20;99.90
11818;DHT22;5966;52.402;5.322;2022-07-18T09:02:57;24.20;99.90
11818;DHT22;5966;52.402;5.322;2022-07-18T09:05:26;24.20;99.90
11818;DHT22;5966;52.402;5.322;2022-07-18T09:08:08;24.20;99.90
11818;DHT22;5966;52.402;5.322;2022-07-18T09:10:59;24.30;99.90
11818;DHT22;5966;52.402;5.322;2022-07-18T09:13:36;24.50;99.90
11818;DHT22;5966;52.402;5.322;2022-07-18T09:16:07;24.60;99.90
11818;DHT22;5966;52.402;5.322;2022-07-18T09:18:36;24.60;99.90
11818;DHT22;5966;52.402;5.322;2022-07-18T09:21:09;24.70;99.90
11818;DHT22;5966;52.402;5.322;2022-07-18T09:23:39;24.70;99.90
11818;DHT22;5966;52.402;5.322;2022-07-18T09:26:08;24.70;99.90
11818;DHT22;5966;52.402;5.322;2022-07-18T09:28:47;24.70;99.90
11818;DHT22;5966;52.402;5.322;2022-07-18T09:31:35;24.90;99.90
11818;DHT22;5966;52.402;5.322;2022-07-18T09:34:04;25.10;99.90
11818;DHT22;5966;52.402;5.322;2022-07-18T09:36:33;25.20;99.90
11818;DHT22;5966;52.402;5.322;2022-07-18T09:39:17;25.30;99.90
11818;DHT22;5966;52.402;5.322;2022-07-18T09:41:45;25.30;99.90
11818;DHT22;5966;52.402;5.322;2022-07-18T09:44:18;25.40;99.90
11818;DHT22;5966;52.402;5.322;2022-07-18T09:47:02;25.50;99.90
11818;DHT22;5966;52.402;5.322;2022-07-18T09:49:31;25.50;99.90
11818;DHT22;5966;52.402;5.322;2022-07-18T09:52:03;25.50;99.90
11818;DHT22;5966;52.402;5.322;2022-07-18T09:54:36;25.50;99.90
11818;DHT22;5966;52.402;5.322;2022-07-18T09:57:04;25.50;99.90
11818;DHT22;5966;52.402;5.322;2022-07-18T09:59:34;25.60;99.90
11818;DHT22;5966;52.402;5.322;2022-07-18T10:02:02;25.70;99.90
11818;DHT22;5966;52.402;5.322;2022-07-18T10:04:31;25.70;99.90
11818;DHT22;5966;52.402;5.322;2022-07-18T10:06:59;25.80;99.90
11818;DHT22;5966;52.402;5.322;2022-07-18T10:09:27;26.00;99.90
11818;DHT22;5966;52.402;5.322;2022-07-18T10:11:55;26.20;99.90
11818;DHT22;5966;52.402;5.322;2022-07-18T10:14:29;26.20;99.90
11818;DHT22;5966;52.402;5.322;2022-07-18T10:16:59;26.10;99.90
11818;DHT22;5966;52.402;5.322;2022-07-18T10:19:27;26.00;99.90
11818;DHT22;5966;52.402;5.322;2022-07-18T10:21:56;26.00;99.90
11818;DHT22;5966;52.402;5.322;2022-07-18T10:24:26;26.00;99.90
11818;DHT22;5966;52.402;5.322;2022-07-18T10:27:14;26.00;99.90
11818;DHT22;5966;52.402;5.322;2022-07-18T10:30:08;26.10;99.90
11818;DHT22;5966;52.402;5.322;2022-07-18T10:32:38;26.20;99.90
11818;DHT22;5966;52.402;5.322;2022-07-18T10:35:08;26.20;99.90
11818;DHT22;5966;52.402;5.322;2022-07-18T10:37:38;26.10;99.90
11818;DHT22;5966;52.402;5.322;2022-07-18T10:40:25;26.20;99.90
11818;DHT22;5966;52.402;5.322;2022-07-18T10:46:01;26.30;99.90
11818;DHT22;5966;52.402;5.322;2022-07-18T10:48:58;26.50;99.90
11818;DHT22;5966;52.402;5.322;2022-07-18T10:51:31;26.70;99.90
11818;DHT22;5966;52.402;5.322;2022-07-18T10:54:11;26.70;99.90
11818;DHT22;5966;52.402;5.322;2022-07-18T10:57:07;26.60;99.90
11818;DHT22;5966;52.402;5.322;2022-07-18T10:59:36;26.50;99.90
11818;DHT22;5966;52.402;5.322;2022-07-18T11:02:06;26.50;99.90
11818;DHT22;5966;52.402;5.322;2022-07-18T11:04:39;26.60;99.90
11818;DHT22;5966;52.402;5.322;2022-07-18T11:07:11;26.60;99.90
11818;DHT22;5966;52.402;5.322;2022-07-18T11:09:42;26.80;99.90
11818;DHT22;5966;52.402;5.322;2022-07-18T11:12:18;26.90;99.90
11818;DHT22;5966;52.402;5.322;2022-07-18T11:15:06;26.90;99.90
11818;DHT22;5966;52.402;5.322;2022-07-18T11:18:02;27.00;99.90
11818;DHT22;5966;52.402;5.322;2022-07-18T11:20:40;27.00;99.90
11818;DHT22;5966;52.402;5.322;2022-07-18T11:23:17;27.10;99.90
11818;DHT22;5966;52.402;5.322;2022-07-18T11:25:46;27.20;99.90
11818;DHT22;5966;52.402;5.322;2022-07-18T11:28:25;27.30;99.90
11818;DHT22;5966;52.402;5.322;2022-07-18T11:31:00;27.50;99.90
11818;DHT22;5966;52.402;5.322;2022-07-18T11:33:31;27.50;99.90
11818;DHT22;5966;52.402;5.322;2022-07-18T11:36:05;27.60;99.90
11818;DHT22;5966;52.402;5.322;2022-07-18T11:38:37;27.70;99.90
11818;DHT22;5966;52.402;5.322;2022-07-18T11:41:06;27.70;99.90
11818;DHT22;5966;52.402;5.322;2022-07-18T11:43:34;27.70;99.90
11818;DHT22;5966;52.402;5.322;2022-07-18T11:46:07;27.70;99.90
11818;DHT22;5966;52.402;5.322;2022-07-18T11:48:43;27.70;99.90
11818;DHT22;5966;52.402;5.322;2022-07-18T11:51:15;27.80;99.90
11818;DHT22;5966;52.402;5.322;2022-07-18T11:53:43;28.00;99.90
11818;DHT22;5966;52.402;5.322;2022-07-18T11:56:12;28.10;99.90
11818;DHT22;5966;52.402;5.322;2022-07-18T11:58:42;28.10;99.90
11818;DHT22;5966;52.402;5.322;2022-07-18T12:01:11;28.10;99.90
11818;DHT22;5966;52.402;5.322;2022-07-18T12:03:41;28.20;99.90
11818;DHT22;5966;52.402;5.322;2022-07-18T12:06:13;28.20;99.90
11818;DHT22;5966;52.402;5.322;2022-07-18T12:08:43;28.10;99.90
11818;DHT22;5966;52.402;5.322;2022-07-18T12:11:14;28.10;99.90
11818;DHT22;5966;52.402;5.322;2022-07-18T12:13:56;28.10;99.90
11818;DHT22;5966;52.402;5.322;2022-07-18T12:16:34;28.20;99.90
11818;DHT22;5966;52.402;5.322;2022-07-18T12:19:05;28.40;99.90
11818;DHT22;5966;52.402;5.322;2022-07-18T12:21:50;28.50;99.90
11818;DHT22;5966;52.402;5.322;2022-07-18T12:24:24;28.40;99.90
11818;DHT22;5966;52.402;5.322;2022-07-18T12:27:08;28.30;99.90
11818;DHT22;5966;52.402;5.322;2022-07-18T12:30:04;28.20;99.90
11818;DHT22;5966;52.402;5.322;2022-07-18T12:32:54;27.90;99.90
11818;DHT22;5966;52.402;5.322;2022-07-18T12:35:24;27.80;99.90
11818;DHT22;5966;52.402;5.322;2022-07-18T12:37:58;27.80;99.90
11818;DHT22;5966;52.402;5.322;2022-07-18T12:40:39;27.70;99.90
11818;DHT22;5966;52.402;5.322;2022-07-18T12:43:08;27.70;99.90
11818;DHT22;5966;52.402;5.322;2022-07-18T12:45:37;27.70;99.90
11818;DHT22;5966;52.402;5.322;2022-07-18T12:48:08;27.80;99.90
11818;DHT22;5966;52.402;5.322;2022-07-18T12:50:36;27.80;99.90
11818;DHT22;5966;52.402;5.322;2022-07-18T12:53:06;27.90;99.90
11818;DHT22;5966;52.402;5.322;2022-07-18T12:55:35;28.00;99.90
11818;DHT22;5966;52.402;5.322;2022-07-18T12:58:04;28.10;99.90
11818;DHT22;5966;52.402;5.322;2022-07-18T13:00:33;28.10;99.90
11818;DHT22;5966;52.402;5.322;2022-07-18T13:03:01;28.10;99.90
11818;DHT22;5966;52.402;5.322;2022-07-18T13:05:29;28.20;99.90
11818;DHT22;5966;52.402;5.322;2022-07-18T13:07:58;28.20;99.90
11818;DHT22;5966;52.402;5.322;2022-07-18T13:10:27;28.30;99.90
11818;DHT22;5966;52.402;5.322;2022-07-18T13:12:55;28.30;99.90
11818;DHT22;5966;52.402;5.322;2022-07-18T13:15:23;28.40;99.90
11818;DHT22;5966;52.402;5.322;2022-07-18T13:17:51;28.40;99.90
11818;DHT22;5966;52.402;5.322;2022-07-18T13:20:19;28.50;99.90
11818;DHT22;5966;52.402;5.322;2022-07-18T13:22:47;28.50;99.90
11818;DHT22;5966;52.402;5.322;2022-07-18T13:25:20;28.50;99.90
11818;DHT22;5966;52.402;5.322;2022-07-18T13:27:50;28.50;99.90
11818;DHT22;5966;52.402;5.322;2022-07-18T13:30:18;28.60;99.90
11818;DHT22;5966;52.402;5.322;2022-07-18T13:32:46;28.60;99.90
11818;DHT22;5966;52.402;5.322;2022-07-18T13:35:14;28.50;99.90
11818;DHT22;5966;52.402;5.322;2022-07-18T13:37:43;28.50;99.90
11818;DHT22;5966;52.402;5.322;2022-07-18T13:40:12;28.50;99.90
11818;DHT22;5966;52.402;5.322;2022-07-18T13:42:41;28.50;99.90
11818;DHT22;5966;52.402;5.322;2022-07-18T13:45:11;28.50;99.90
11818;DHT22;5966;52.402;5.322;2022-07-18T13:47:40;28.60;99.90
11818;DHT22;5966;52.402;5.322;2022-07-18T13:50:09;28.70;99.90
11818;DHT22;5966;52.402;5.322;2022-07-18T13:52:37;28.70;99.90
11818;DHT22;5966;52.402;5.322;2022-07-18T13:55:06;28.70;99.90
11818;DHT22;5966;52.402;5.322;2022-07-18T13:57:35;28.70;99.90
11818;DHT22;5966;52.402;5.322;2022-07-18T14:00:05;28.70;99.90
11818;DHT22;5966;52.402;5.322;2022-07-18T14:02:35;28.70;99.90
11818;DHT22;5966;52.402;5.322;2022-07-18T14:05:04;28.70;99.90
11818;DHT22;5966;52.402;5.322;2022-07-18T14:07:42;28.70;99.90
11818;DHT22;5966;52.402;5.322;2022-07-18T14:10:12;28.70;99.90
11818;DHT22;5966;52.402;5.322;2022-07-18T14:12:40;28.70;99.90
11818;DHT22;5966;52.402;5.322;2022-07-18T14:15:09;28.80;99.90
11818;DHT22;5966;52.402;5.322;2022-07-18T14:17:39;28.80;99.90
11818;DHT22;5966;52.402;5.322;2022-07-18T14:20:08;28.90;99.90
11818;DHT22;5966;52.402;5.322;2022-07-18T14:22:38;29.00;99.90
11818;DHT22;5966;52.402;5.322;2022-07-18T14:25:08;29.10;99.90
11818;DHT22;5966;52.402;5.322;2022-07-18T14:27:37;29.20;99.90
11818;DHT22;5966;52.402;5.322;2022-07-18T14:30:07;29.30;99.90
11818;DHT22;5966;52.402;5.322;2022-07-18T14:32:35;29.40;99.90
11818;DHT22;5966;52.402;5.322;2022-07-18T14:35:06;29.40;99.90
11818;DHT22;5966;52.402;5.322;2022-07-18T14:37:35;29.50;99.90
11818;DHT22;5966;52.402;5.322;2022-07-18T14:40:03;29.50;99.90
11818;DHT22;5966;52.402;5.322;2022-07-18T14:42:32;29.50;99.90
11818;DHT22;5966;52.402;5.322;2022-07-18T14:45:00;29.40;99.90
11818;DHT22;5966;52.402;5.322;2022-07-18T14:47:29;29.30;99.90
11818;DHT22;5966;52.402;5.322;2022-07-18T14:49:59;29.30;99.90
11818;DHT22;5966;52.402;5.322;2022-07-18T14:52:30;29.30;99.90
11818;DHT22;5966;52.402;5.322;2022-07-18T14:54:58;29.40;99.90
11818;DHT22;5966;52.402;5.322;2022-07-18T14:57:26;29.50;99.90
11818;DHT22;5966;52.402;5.322;2022-07-18T14:59:54;29.70;99.90
11818;DHT22;5966;52.402;5.322;2022-07-18T15:02:22;29.80;99.90
11818;DHT22;5966;52.402;5.322;2022-07-18T15:04:50;29.70;99.90
11818;DHT22;5966;52.402;5.322;2022-07-18T15:07:18;29.60;99.90
11818;DHT22;5966;52.402;5.322;2022-07-18T15:09:48;29.50;99.90
11818;DHT22;5966;52.402;5.322;2022-07-18T15:12:16;29.50;99.90
11818;DHT22;5966;52.402;5.322;2022-07-18T15:14:44;29.50;99.90
11818;DHT22;5966;52.402;5.322;2022-07-18T15:17:12;29.50;99.90
11818;DHT22;5966;52.402;5.322;2022-07-18T15:19:40;29.60;99.90
11818;DHT22;5966;52.402;5.322;2022-07-18T15:22:08;29.60;99.90
11818;DHT22;5966;52.402;5.322;2022-07-18T15:24:36;29.60;99.90
11818;DHT22;5966;52.402;5.322;2022-07-18T15:27:05;29.50;99.90
11818;DHT22;5966;52.402;5.322;2022-07-18T15:29:33;29.50;99.90
11818;DHT22;5966;52.402;5.322;2022-07-18T15:32:01;29.40;99.90
11818;DHT22;5966;52.402;5.322;2022-07-18T15:34:34;29.40;99.90
11818;DHT22;5966;52.402;5.322;2022-07-18T15:37:03;29.30;99.90
11818;DHT22;5966;52.402;5.322;2022-07-18T15:39:32;29.30;99.90
11818;DHT22;5966;52.402;5.322;2022-07-18T15:42:00;29.40;99.90
11818;DHT22;5966;52.402;5.322;2022-07-18T15:44:30;29.40;99.90
11818;DHT22;5966;52.402;5.322;2022-07-18T15:47:04;29.40;99.90
11818;DHT22;5966;52.402;5.322;2022-07-18T15:49:33;29.40;99.90
11818;DHT22;5966;52.402;5.322;2022-07-18T15:52:02;29.40;99.90
11818;DHT22;5966;52.402;5.322;2022-07-18T15:54:33;29.50;99.90
11818;DHT22;5966;52.402;5.322;2022-07-18T15:57:01;29.50;99.90
11818;DHT22;5966;52.402;5.322;2022-07-18T15:59:30;29.50;99.90
11818;DHT22;5966;52.402;5.322;2022-07-18T16:01:58;29.60;99.90
11818;DHT22;5966;52.402;5.322;2022-07-18T16:04:26;29.60;99.90
11818;DHT22;5966;52.402;5.322;2022-07-18T16:06:54;29.60;99.90